Accueil
METAR-TAF:

METAR-TAF

Aéroports :

Saint-Dizier, France

Base aérienne 113 Saint-Dizier-Robinson

latitude: 48-38N, longitude: 004-54E, altitude: 139 m

Observation

Le bulletin a été fait il y a 21 minutes, à 01:30 UTC
Vent 5 kt de est
Température 11°C
Humidité 87%
Pression 1023 hPa
Visibilité 10 km ou plus
pas de nuages en-dessous de 1500 mètres et pas de cumulonimbus.

METAR: LFSI 170130Z AUTO 09005KT CAVOK 11/09 Q1023

Heure: 03:51 (01:51 UTC)

Prévision

Le bulletin a été fait il y a 5 heures et 51 minutes, à 20:00 UTC
Prévision valable du 16 à 21 UTC au 17 à 21 UTC
Vent 5 kt de sud-est
Visibilité 10 km ou plus
pas de nuages en-dessous de 1500 mètres et pas de cumulonimbus.
Temporairement
du 17 à 05 UTC au 17 à 07 UTC
Visibilité: 3000 m
brume

TAF: LFSI 162000Z 1621/1721 13005KT CAVOK TEMPO 1705/1707 3000 BR

Observations et prévisions météorologiques de plus de 4000 aéroports (messages METAR et TAF).

Les stations disponibles sont représentées par des disques jaunes et rouges sur la carte.

Passer la souris dessus pour voir le nom de la station.

Cliquer dessus pour voir les observations et prévisions météorologiques.

Pour changer de carte: cliquez sur les boutons verts avec une croix noire pour zoomer, sur le bouton vert avec un tiret pour effectuer un zoom arrière, ou sur les flèches vertes pour les cartes adjacentes.


METAR-TAF: